Latest Weather Observations for Minlaton Airport

IDS60801

Issued at 3:32 pm CDT Friday 27 March 2015 (issued every 30 minutes, with the page automatically refreshed every 10 minutes)

About weather observations | Map of weather stations | Latest weather observations for SA | Other Formats
Station Details ID: 022031 Name: MINLATON AERO Lat: -34.75 Lon: 137.53 Height: 32.0 m
Data from the previous 72 hours. | See also: Recent months at Minlaton Airport
Date/Time
CDT
Temp
°C
App
Temp
°C
Dew
Point
Rel
Hum
%
Delta-T
°C
Wind Press
QNH
hPa
Press
MSL
hPa
Rain
since 9 am
mm
Dir
 
Spd
km/h
Gust
km/h
Spd
kts
Gust
kts
27/03:30pm 18.1 14.3 9.2 56 4.6 W 19 24 10 13 1026.5 1026.5 0.0
27/03:00pm 18.3 14.6 9.6 57 4.6 WSW 19 26 10 14 1026.7 1026.7 0.0
27/02:30pm 18.1 14.1 8.4 53 5.0 WSW 19 26 10 14 1027.1 1027.1 0.0
27/02:00pm 18.6 14.5 8.6 52 5.2 WSW 20 28 11 15 1027.6 1027.6 0.0
27/01:30pm 18.7 13.9 8.7 52 5.2 WSW 24 32 13 17 1027.9 1027.9 0.0
27/01:00pm 17.5 13.0 8.6 56 4.6 WSW 22 28 12 15 1028.6 1028.5 0.0
27/12:30pm 17.6 12.7 8.5 55 4.6 SW 24 32 13 17 1029.0 1028.9 0.0
27/12:00pm 17.5 14.3 7.0 50 5.2 SSE 13 20 7 11 1029.4 1029.3 0.0
27/11:30am 17.9 13.6 7.9 52 5.1 SSW 20 32 11 17 1029.8 1029.7 0.0
27/11:00am 17.0 13.3 9.4 61 4.0 SW 19 28 10 15 1030.0 1029.9 0.0
27/10:30am 17.7 14.2 8.8 56 4.6 SW 17 24 9 13 1029.9 1029.8 0.0
27/10:00am 16.4 14.4 10.0 66 3.3 S 11 19 6 10 1030.0 1029.9 0.0
27/09:30am 14.2 12.1 9.6 74 2.3 SE 11 15 6 8 1030.1 1030.0 0.0
27/09:00am 13.9 11.5 9.9 77 2.1 SSW 13 22 7 12 1030.0 1029.9 0.0
27/08:30am 14.0 13.1 9.4 74 2.3 SW 4 11 2 6 1029.8 1029.7 0.0
27/08:00am 12.9 11.5 8.8 76 2.1 SSW 6 6 3 3 1029.5 1029.4 0.0
27/07:30am 12.9 10.9 8.8 76 2.0 SSE 9 11 5 6 1029.0 1028.9 0.0
27/07:00am 13.2 10.4 8.5 73 2.3 SSE 13 17 7 9 1028.7 1028.6 0.0
27/06:30am 13.5 10.2 7.9 69 2.7 S 15 19 8 10 1028.6 1028.5 0.0
27/06:00am 13.1 11.0 8.2 72 2.4 S 9 13 5 7 1028.1 1028.1 0.0
27/05:30am 12.9 11.0 9.0 77 2.0 SSE 9 9 5 5 1027.9 1027.9 0.0
27/05:00am 12.9 11.0 9.2 78 1.9 SE 9 11 5 6 1028.0 1028.0 0.0
27/04:30am 13.2 9.8 9.3 77 2.0 SSE 17 22 9 12 1027.9 1027.9 0.0
27/04:00am 14.0 10.6 7.8 66 3.1 S 15 24 8 13 1027.9 1027.9 0.0
27/03:30am 13.4 11.1 7.4 67 2.9 SE 9 9 5 5 1028.1 1028.1 0.0
27/03:00am 13.6 11.6 7.2 65 3.1 SSW 7 9 4 5 1028.4 1028.3 0.0
27/02:30am 13.4 11.6 7.0 65 3.1 S 6 7 3 4 1028.4 1028.3 0.0
27/02:00am 13.9 11.5 7.2 64 3.3 SSW 9 11 5 6 1028.7 1028.6 0.0
27/01:30am 14.0 11.7 7.3 64 3.3 SSW 9 13 5 7 1028.7 1028.6 0.0
27/01:00am 14.1 10.9 6.9 62 3.5 SW 13 15 7 8 1028.8 1028.7 0.0
27/12:30am 14.1 10.9 6.7 61 3.6 SSW 13 17 7 9 1028.8 1028.7 0.0
27/12:00am 13.8 11.4 7.1 64 3.2 SSW 9 11 5 6 1028.9 1028.8 0.0
 
Date/Time
CDT
Temp
°C
App
Temp
°C
Dew
Point
Rel
Hum
%
Delta-T
°C
Wind Press
QNH
hPa
Press
MSL
hPa
Rain
since 9 am
mm
Dir
 
Spd
km/h
Gust
km/h
Spd
kts
Gust
kts
26/11:30pm 14.1 10.6 7.2 63 3.4 SSW 15 20 8 11 1029.0 1028.9 0.0
26/11:00pm 14.7 10.1 6.3 57 4.1 SW 20 28 11 15 1028.9 1028.8 0.0
26/10:30pm 14.7 9.9 4.4 50 4.7 SSW 19 24 10 13 1029.0 1028.9 0.0
26/10:00pm 14.9 9.8 4.0 48 5.0 SW 20 26 11 14 1029.0 1028.9 0.0
26/09:30pm 14.8 9.8 4.5 50 4.8 SW 20 28 11 15 1029.0 1028.9 0.0
26/09:00pm 14.7 9.1 5.5 54 4.3 SSW 24 32 13 17 1028.9 1028.8 0.0
26/08:30pm 14.6 9.8 5.7 55 4.2 SSW 20 28 11 15 1028.6 1028.5 0.0
26/08:00pm 12.8 8.1 2.9 51 4.4 SSW 17 20 9 11 1028.5 1028.4 0.0
26/07:30pm 13.8 9.5 3.3 49 4.7 SSW 15 20 8 11 1028.5 1028.4 0.0
26/07:00pm 15.6 9.7 3.7 45 5.4 SSW 24 33 13 18 1027.9 1027.9 0.0
26/06:30pm 16.1 10.1 3.5 43 5.8 SSW 24 32 13 17 1027.6 1027.6 0.0
26/06:00pm 17.1 9.9 3.1 39 6.4 SW 30 37 16 20 1027.3 1027.3 0.0
26/05:30pm 18.4 10.3 -3.1 23 8.7 SW 30 43 16 23 1027.1 1027.1 0.0
26/05:00pm 18.1 10.1 1.6 33 7.4 WSW 33 41 18 22 1026.8 1026.8 0.0
26/04:30pm 19.1 11.2 2.5 33 7.6 SW 33 43 18 23 1026.8 1026.8 0.0
26/04:00pm 18.4 10.8 2.7 35 7.2 SW 32 43 17 23 1026.7 1026.7 0.0
26/03:30pm 18.2 10.4 4.7 41 6.4 WSW 35 46 19 25 1026.8 1026.8 0.0
26/03:00pm 17.6 10.4 4.9 43 6.0 WSW 32 41 17 22 1026.8 1026.8 0.0
26/02:30pm 18.2 10.7 3.7 38 6.8 SW 32 43 17 23 1026.9 1026.9 0.0
26/02:00pm 16.9 9.5 4.9 45 5.7 SW 33 43 18 23 1027.0 1027.0 0.0
26/01:30pm 18.5 12.6 3.9 38 6.9 SW 24 33 13 18 1027.4 1027.4 0.0
26/01:00pm 16.8 10.7 4.8 45 5.7 SW 26 35 14 19 1027.6 1027.6 0.0
26/12:30pm 17.0 10.0 4.3 43 5.9 SW 30 37 16 20 1027.5 1027.5 0.0
26/12:00pm 16.4 9.5 4.4 45 5.6 SW 30 43 16 23 1027.4 1027.4 0.0
26/11:30am 17.1 10.5 4.4 43 6.0 SW 28 32 15 17 1027.4 1027.4 0.0
26/11:00am 16.0 8.9 3.8 44 5.6 SW 30 41 16 22 1027.3 1027.3 0.0
26/10:30am 15.8 8.4 3.9 45 5.5 SSW 32 43 17 23 1027.0 1027.0 0.0
26/10:00am 15.5 8.8 5.4 51 4.8 SW 30 39 16 21 1026.8 1026.8 0.0
26/09:30am 15.1 9.3 6.4 56 4.2 SW 26 32 14 17 1026.5 1026.5 0.0
26/09:00am 13.8 7.9 5.7 58 3.8 SW 26 33 14 18 1026.1 1026.1 0.8
26/08:30am 12.9 8.4 6.3 64 3.1 SSW 19 24 10 13 1025.7 1025.7 0.8
26/08:00am 10.4 6.2 5.8 73 2.1 SSW 17 19 9 10 1025.3 1025.2 0.8
26/07:30am 10.6 5.9 5.2 69 2.4 SSW 19 24 10 13 1025.0 1024.9 0.8
26/07:00am 11.5 6.5 4.7 63 3.1 SW 20 26 11 14 1024.6 1024.5 0.8
26/06:30am 12.3 6.7 5.5 63 3.1 SW 24 30 13 16 1024.2 1024.1 0.8
26/06:00am 11.6 6.0 5.3 65 2.9 SW 24 30 13 16 1023.9 1023.8 0.8
26/05:30am 10.4 5.8 5.4 71 2.3 SSW 19 22 10 12 1023.6 1023.5 0.8
26/05:00am 11.1 5.5 5.6 69 2.5 SW 24 32 13 17 1023.3 1023.2 0.8
26/04:30am 9.9 6.0 5.5 74 2.0 SSW 15 17 8 9 1023.3 1023.2 0.8
26/04:00am 10.9 6.2 5.9 71 2.3 SSW 20 24 11 13 1023.2 1023.1 0.8
26/03:30am 11.3 6.1 5.4 67 2.7 SW 22 28 12 15 1023.0 1022.9 0.8
26/03:00am 10.3 6.1 5.5 72 2.2 SW 17 20 9 11 1023.3 1023.2 0.8
26/02:30am 11.0 6.9 6.4 73 2.2 SSW 17 20 9 11 1023.3 1023.2 0.8
26/02:00am 12.0 6.8 7.1 72 2.4 SSW 24 32 13 17 1023.1 1023.0 0.8
26/01:30am 10.7 6.0 5.9 72 2.2 SSW 20 22 11 12 1023.1 1023.0 0.8
26/01:03am 12.1 6.0 6.6 69 2.6 SW 28 46 15 25 1022.9 1022.8 0.8
26/01:00am 12.4 7.4 6.5 67 2.8 SW 22 46 12 25 1022.9 1022.8 0.8
26/12:30am 12.0 6.8 5.6 65 3.0 SW 22 28 12 15 1022.8 1022.7 0.8
26/12:00am 12.0 6.4 5.6 65 3.0 SW 24 28 13 15 1022.7 1022.6 0.8
 
Date/Time
CDT
Temp
°C
App
Temp
°C
Dew
Point
Rel
Hum
%
Delta-T
°C
Wind Press
QNH
hPa
Press
MSL
hPa
Rain
since 9 am
mm
Dir
 
Spd
km/h
Gust
km/h
Spd
kts
Gust
kts
25/11:30pm 12.4 5.9 4.9 60 3.4 SW 28 37 15 20 1022.7 1022.6 0.8
25/11:00pm 11.7 6.6 6.0 68 2.7 SSW 22 28 12 15 1022.6 1022.5 0.8
25/10:30pm 11.6 5.7 5.9 68 2.6 SSW 26 33 14 18 1022.4 1022.3 0.8
25/10:16pm 12.6 6.3 5.5 62 3.3 SW 28 46 15 25 1022.4 1022.3 0.8
25/10:00pm 12.3 6.3 5.2 62 3.3 SW 26 32 14 17 1022.2 1022.1 0.6
25/09:30pm 12.7 4.8 4.2 56 3.8 SW 35 46 19 25 1021.8 1021.7 0.6
25/09:00pm 12.7 5.4 4.4 57 3.8 SW 32 41 17 22 1021.6 1021.5 0.6
25/08:30pm 12.8 5.4 5.0 59 3.6 SW 33 44 18 24 1021.0 1020.9 0.6
25/08:00pm 13.0 5.3 5.2 59 3.6 SW 35 48 19 26 1020.4 1020.3 0.6
25/07:30pm 13.5 6.5 6.8 64 3.2 SW 33 48 18 26 1019.9 1019.8 0.6
25/07:00pm 14.0 7.7 9.6 75 2.3 SW 33 43 18 23 1019.5 1019.4 0.6
25/06:30pm 13.6 7.7 10.4 81 1.7 SW 32 43 17 23 1019.2 1019.1 0.6
25/06:00pm 13.8 6.8 12.4 91 0.8 SW 41 56 22 30 1018.9 1018.8 0.6
25/05:46pm 13.7 6.4 11.6 87 1.1 SW 41 61 22 33 1018.4 1018.3 0.6
25/05:30pm 14.2 6.9 12.8 91 0.8 SW 43 56 23 30 1018.3 1018.2 0.6
25/05:00pm 14.6 7.3 13.3 92 0.7 SW 44 56 24 30 1017.8 1017.7 0.2
25/04:48pm 15.5 7.7 13.0 85 1.4 WSW 46 61 25 33 1017.4 1017.3 0.0
25/04:35pm 17.7 8.1 14.0 79 2.1 W 57 76 31 41 1017.2 1017.1 0.0
25/04:30pm 18.0 8.7 11.8 67 3.4 W 52 76 28 41 1016.7 1016.6 0.0
25/04:16pm 20.3 11.7 8.0 45 6.4 WNW 43 61 23 33 1016.4 1016.3 0.0
25/04:00pm 22.0 13.1 7.0 38 7.7 W 43 54 23 29 1016.5 1016.4 0.0
25/03:42pm 22.1 13.9 8.2 41 7.3 WNW 41 54 22 29 1016.5 1016.4 0.0
25/03:30pm 20.8 13.5 8.8 46 6.3 NW 37 48 20 26 1016.8 1016.7 0.0
25/03:00pm 20.6 12.7 7.9 44 6.6 NW 39 48 21 26 1017.3 1017.2 0.0
25/02:30pm 20.7 13.1 7.7 43 6.7 NW 37 52 20 28 1017.6 1017.5 0.0
25/02:00pm 19.9 11.4 7.0 43 6.5 WNW 41 50 22 27 1018.3 1018.2 0.0
25/01:30pm 20.2 11.5 6.2 40 7.0 NW 41 50 22 27 1018.8 1018.7 0.0
25/01:00pm 19.7 11.8 6.4 42 6.7 WNW 37 46 20 25 1018.9 1018.8 0.0
25/12:30pm 19.6 10.8 5.6 40 6.9 WNW 41 56 22 30 1019.1 1019.0 0.0
25/12:00pm 19.9 11.9 4.0 35 7.6 WNW 35 44 19 24 1019.1 1019.0 0.0
25/11:30am 19.6 11.8 2.9 33 7.8 WNW 33 43 18 23 1019.4 1019.3 0.0
25/11:00am 19.5 11.6 4.4 37 7.3 WNW 35 48 19 26 1019.6 1019.5 0.0
25/10:30am 18.2 10.7 4.4 40 6.6 WNW 33 44 18 24 1019.8 1019.7 0.0
25/10:00am 18.4 11.1 5.6 43 6.3 WNW 33 41 18 22 1019.9 1019.8 0.0
25/09:30am 15.9 11.8 6.3 53 4.7 N 17 28 9 15 1020.1 1020.0 0.0
25/09:00am 13.3 8.9 5.0 57 3.8 N 17 19 9 10 1020.3 1020.2 0.0
25/08:30am 13.0 9.1 5.2 59 3.6 NNE 15 19 8 10 1020.1 1020.0 0.0
25/08:00am 11.4 7.5 5.3 66 2.8 NNE 15 17 8 9 1019.9 1019.8 0.0
25/07:30am 9.7 5.7 4.9 72 2.1 NE 15 17 8 9 1019.9 1019.8 0.0
25/07:00am 9.3 5.2 4.5 72 2.1 ENE 15 17 8 9 1019.7 1019.6 0.0
25/06:30am 9.9 6.7 5.1 72 2.2 ESE 11 13 6 7 1019.7 1019.6 0.0
25/06:00am 10.2 6.7 5.6 73 2.1 ESE 13 13 7 7 1019.4 1019.3 0.0
25/05:30am 9.4 6.2 5.0 74 2.0 SE 11 11 6 6 1019.6 1019.5 0.0
25/05:00am 8.8 5.7 3.8 71 2.2 ESE 9 11 5 6 1019.9 1019.8 0.0
25/04:30am 9.2 6.5 3.8 69 2.3 SE 7 7 4 4 1020.1 1020.0 0.0
25/04:00am 9.8 7.1 3.8 66 2.6 SSE 7 9 4 5 1020.1 1020.0 0.0
25/03:30am 11.5 9.2 4.9 64 3.0 NE 6 7 3 4 1020.2 1020.1 0.0
25/03:00am 12.5 10.0 5.0 60 3.4 NE 7 9 4 5 1020.7 1020.6 0.0
25/02:30am 13.8 12.8 5.7 58 3.8 CALM 0 0 0 0 1020.9 1020.8 0.0
25/02:00am 13.6 12.6 5.5 58 3.8 CALM 0 0 0 0 1021.3 1021.2 0.0
25/01:30am 13.8 12.7 5.2 56 4.0 CALM 0 0 0 0 1021.5 1021.4 0.0
25/01:00am 13.4 12.2 4.8 56 4.0 CALM 0 0 0 0 1021.6 1021.5 0.0
25/12:30am 13.0 10.6 4.4 56 3.9 S 6 7 3 4 1021.7 1021.6 0.0
25/12:00am 13.4 10.9 4.6 55 4.0 SSW 7 9 4 5 1021.8 1021.7 0.0
 
Date/Time
CDT
Temp
°C
App
Temp
°C
Dew
Point
Rel
Hum
%
Delta-T
°C
Wind Press
QNH
hPa
Press
MSL
hPa
Rain
since 9 am
mm
Dir
 
Spd
km/h
Gust
km/h
Spd
kts
Gust
kts
24/11:30pm 13.7 10.4 4.3 53 4.3 S 11 13 6 7 1021.7 1021.6 0.0
24/11:00pm 14.1 11.0 3.8 50 4.7 ESE 9 11 5 6 1022.1 1022.0 0.0
24/10:30pm 14.5 11.1 4.2 50 4.7 ESE 11 11 6 6 1022.5 1022.4 0.0
24/10:00pm 14.8 11.0 3.9 48 5.0 ESE 13 15 7 8 1022.5 1022.4 0.0
24/09:30pm 15.2 11.4 4.0 47 5.1 SE 13 17 7 9 1022.7 1022.6 0.0
24/09:00pm 14.6 10.8 3.7 48 4.9 SSE 13 17 7 9 1022.6 1022.5 0.0
24/08:30pm 13.6 10.6 3.9 52 4.4 SE 9 11 5 6 1022.3 1022.2 0.0
24/08:00pm 12.8 9.1 2.6 50 4.5 SSE 11 15 6 8 1021.8 1021.7 0.0
24/07:30pm 14.9 10.6 3.1 45 5.3 S 15 20 8 11 1021.7 1021.6 0.0
24/07:00pm 16.9 11.9 3.6 41 6.2 S 19 26 10 14 1021.8 1021.7 0.0
24/06:30pm 18.0 13.2 2.7 36 7.0 SE 17 30 9 16 1021.3 1021.2 0.0
24/06:00pm 17.8 12.2 3.3 38 6.7 S 22 32 12 17 1021.2 1021.1 0.0
24/05:30pm 18.5 12.7 4.3 39 6.7 SE 24 32 13 17 1021.0 1020.9 0.0
24/05:00pm 18.7 14.3 2.5 34 7.5 S 15 30 8 16 1021.1 1021.0 0.0
24/04:30pm 18.5 13.4 3.9 38 6.9 S 20 26 11 14 1021.3 1021.2 0.0
24/04:00pm 18.9 14.3 3.5 36 7.2 SSE 17 26 9 14 1021.4 1021.3 0.0

Other Formats:

Comma delimited format used in spreadsheet applications
http://www.bom.gov.au/fwo/IDS60801/IDS60801.95659.axf

JavaScript Object Notation format (JSON) in row-major order
http://www.bom.gov.au/fwo/IDS60801/IDS60801.95659.json